Time;durP1;ratioP1;P1;durP2;ratioP2;P2;SDS_P1;SDS_P2;PMS_P1;PMS_P2;Temp;Humidity;BMP_temperature;BMP_pressure;BME280_temperature;BME280_humidity;BME280_pressure;Samples;Min_cycle;Max_cycle;Signal;HPM_P1;HPM_P2
2023/06/24 00:00:09;;;;;;;8.17;6.33;;;19.10;99.90;;;;;;4986883;28;20190;-81
2023/06/24 00:02:38;;;;;;;8.63;6.40;;;19.10;99.90;;;;;;4987415;28;20184;-83
2023/06/24 00:05:05;;;;;;;10.13;6.70;;;19.10;99.90;;;;;;4983617;28;20496;-84
2023/06/24 00:07:30;;;;;;;9.40;6.90;;;19.10;99.90;;;;;;4981726;28;20818;-84
2023/06/24 00:09:56;;;;;;;8.97;7.43;;;19.00;99.90;;;;;;4972622;28;20479;-87
2023/06/24 00:12:21;;;;;;;8.67;6.33;;;19.00;99.90;;;;;;4973597;28;20174;-86
2023/06/24 00:14:47;;;;;;;10.27;6.97;;;18.90;99.90;;;;;;4973467;28;20194;-81
2023/06/24 00:17:16;;;;;;;9.50;6.53;;;18.80;99.90;;;;;;4973937;28;20187;-82
2023/06/24 00:19:41;;;;;;;9.27;7.40;;;18.80;99.90;;;;;;4991023;28;20432;-87
2023/06/24 00:22:07;;;;;;;10.40;7.50;;;18.70;99.90;;;;;;4992801;28;20429;-85
2023/06/24 00:24:32;;;;;;;9.27;7.07;;;18.60;99.90;;;;;;4992093;28;20191;-80
2023/06/24 00:26:58;;;;;;;7.57;6.77;;;18.50;99.90;;;;;;4992210;28;20215;-79
2023/06/24 00:29:23;;;;;;;8.90;7.20;;;18.50;99.90;;;;;;4992832;28;20259;-83
2023/06/24 00:31:49;;;;;;;9.67;7.43;;;18.50;99.90;;;;;;4992850;28;20168;-81
2023/06/24 00:34:14;;;;;;;8.17;7.17;;;18.40;99.90;;;;;;4992657;28;20204;-80
2023/06/24 00:36:40;;;;;;;10.03;6.47;;;18.40;99.90;;;;;;4985724;28;20245;-80
2023/06/24 00:39:06;;;;;;;8.80;8.00;;;18.30;99.90;;;;;;4992794;28;20524;-81
2023/06/24 00:41:35;;;;;;;7.53;6.77;;;18.30;99.90;;;;;;4992831;28;20171;-81
2023/06/24 00:44:01;;;;;;;9.93;7.77;;;18.20;99.90;;;;;;4992745;28;21264;-80
2023/06/24 00:46:28;;;;;;;7.77;6.93;;;18.20;99.90;;;;;;4995566;28;20416;-80
2023/06/24 00:48:55;;;;;;;8.60;7.37;;;18.20;99.90;;;;;;4996235;28;20416;-80
2023/06/24 00:51:21;;;;;;;9.70;8.00;;;18.20;99.90;;;;;;4995868;28;20410;-82
2023/06/24 00:53:47;;;;;;;10.63;7.10;;;18.10;99.90;;;;;;4996095;28;20556;-81
2023/06/24 00:56:14;;;;;;;10.33;7.20;;;18.00;99.90;;;;;;4996154;28;20886;-80
2023/06/24 00:58:42;;;;;;;11.77;6.90;;;18.00;99.90;;;;;;5076861;22;20495;-87
2023/06/24 01:01:10;;;;;;;12.57;7.90;;;18.00;99.90;;;;;;5035396;28;20841;-81
2023/06/24 01:03:36;;;;;;;8.07;6.93;;;18.00;99.90;;;;;;5035164;28;20475;-81
2023/06/24 01:06:02;;;;;;;13.17;7.60;;;17.90;99.90;;;;;;5034810;28;20577;-81
2023/06/24 01:08:28;;;;;;;9.20;7.63;;;17.90;99.90;;;;;;5035209;28;20437;-81
2023/06/24 01:10:56;;;;;;;10.20;7.37;;;17.80;99.90;;;;;;5035325;28;20416;-81
2023/06/24 01:13:22;;;;;;;9.43;7.33;;;17.80;99.90;;;;;;5035390;28;20235;-80
2023/06/24 01:15:48;;;;;;;9.47;7.80;;;17.70;99.90;;;;;;5035223;28;20582;-81
2023/06/24 01:18:24;;;;;;;13.60;7.90;;;17.70;99.90;;;;;;5034988;28;20178;-88
2023/06/24 01:20:54;;;;;;;10.40;6.83;;;17.60;99.90;;;;;;5035135;28;20484;-81
2023/06/24 01:23:48;;;;;;;8.83;7.23;;;17.60;99.90;;;;;;5034866;28;20410;-87
2023/06/24 01:26:16;;;;;;;10.63;7.07;;;17.60;99.90;;;;;;5034649;28;20426;-80
2023/06/24 01:29:08;;;;;;;9.30;7.13;;;17.60;99.90;;;;;;5034899;28;20498;-84
2023/06/24 01:32:00;;;;;;;8.13;6.70;;;17.40;99.90;;;;;;5034962;28;20419;-81
2023/06/24 01:34:35;;;;;;;10.10;6.50;;;17.50;99.90;;;;;;5034963;28;20471;-81
2023/06/24 01:37:08;;;;;;;9.20;6.60;;;17.40;99.90;;;;;;5034455;28;20406;-90
2023/06/24 01:39:40;;;;;;;9.90;6.83;;;17.40;99.90;;;;;;5034807;28;20780;-81
2023/06/24 01:42:09;;;;;;;9.67;7.47;;;17.40;99.90;;;;;;5034567;28;20414;-81
2023/06/24 01:44:36;;;;;;;9.40;7.33;;;17.40;99.90;;;;;;5034599;28;20426;-82
2023/06/24 01:47:06;;;;;;;10.37;7.47;;;17.40;99.90;;;;;;5034630;28;20427;-81
2023/06/24 01:49:33;;;;;;;9.30;7.30;;;17.40;99.90;;;;;;5034566;28;20414;-81
2023/06/24 01:52:02;;;;;;;11.67;7.07;;;17.40;99.90;;;;;;5034082;28;20422;-81
2023/06/24 01:54:29;;;;;;;9.90;7.03;;;17.50;99.90;;;;;;5034096;28;20483;-81
2023/06/24 01:56:57;;;;;;;9.30;8.07;;;17.50;99.90;;;;;;5033550;28;20421;-81
2023/06/24 01:59:24;;;;;;;10.37;8.20;;;17.50;99.90;;;;;;5034043;28;20441;-81
2023/06/24 02:01:51;;;;;;;10.50;7.13;;;17.60;99.90;;;;;;5034495;28;20416;-81
2023/06/24 02:04:18;;;;;;;11.40;7.87;;;17.60;99.90;;;;;;5034556;28;20810;-80
2023/06/24 02:06:45;;;;;;;9.73;8.80;;;17.60;99.90;;;;;;5034129;28;20414;-90
2023/06/24 02:09:11;;;;;;;9.73;7.57;;;17.60;99.90;;;;;;5034612;28;20415;-80
2023/06/24 02:11:38;;;;;;;7.43;6.23;;;17.60;99.90;;;;;;5034580;28;20784;-87
2023/06/24 02:14:05;;;;;;;12.83;8.50;;;17.60;99.90;;;;;;5034092;28;20475;-80
2023/06/24 02:16:36;;;;;;;10.53;7.70;;;17.50;99.90;;;;;;5034211;28;20434;-80
2023/06/24 02:19:06;;;;;;;11.00;7.13;;;17.50;99.90;;;;;;5032861;28;20797;-80
2023/06/24 02:21:35;;;;;;;8.80;7.77;;;17.40;99.90;;;;;;5033954;28;20470;-83
2023/06/24 02:24:01;;;;;;;9.40;7.37;;;17.40;99.90;;;;;;5034195;28;20936;-88
2023/06/24 02:26:26;;;;;;;8.70;7.60;;;17.30;99.90;;;;;;5034109;28;20471;-88
2023/06/24 02:28:54;;;;;;;8.03;6.80;;;17.30;99.90;;;;;;5034109;28;20428;-80
2023/06/24 02:31:20;;;;;;;8.80;7.90;;;17.20;99.90;;;;;;5034070;28;20170;-80
2023/06/24 02:33:45;;;;;;;9.30;8.30;;;17.20;99.90;;;;;;5033874;28;20465;-81
2023/06/24 02:36:11;;;;;;;10.93;8.17;;;17.10;99.90;;;;;;5033574;28;20638;-81
2023/06/24 02:38:37;;;;;;;9.80;7.60;;;17.10;99.90;;;;;;5034120;28;20523;-80
2023/06/24 02:41:04;;;;;;;9.97;8.20;;;17.00;99.90;;;;;;5032306;28;20435;-80
2023/06/24 02:43:30;;;;;;;9.90;7.70;;;17.00;99.90;;;;;;5033725;28;20173;-80
2023/06/24 02:45:57;;;;;;;15.53;7.77;;;16.90;99.90;;;;;;5033568;28;20918;-80
2023/06/24 02:48:23;;;;;;;8.17;7.17;;;16.90;99.90;;;;;;5033695;28;20836;-80
2023/06/24 02:50:49;;;;;;;13.43;9.47;;;16.90;99.90;;;;;;5033335;28;20453;-80
2023/06/24 02:53:16;;;;;;;9.93;8.40;;;16.80;99.90;;;;;;5032518;28;20699;-80
2023/06/24 02:55:42;;;;;;;8.30;6.97;;;16.80;99.90;;;;;;5033238;28;20421;-80
2023/06/24 02:58:08;;;;;;;10.10;8.50;;;16.70;99.90;;;;;;5033023;28;20827;-80
2023/06/24 03:00:35;;;;;;;11.27;7.87;;;16.70;99.90;;;;;;5033269;28;20422;-79
2023/06/24 03:03:03;;;;;;;9.50;7.17;;;16.70;99.90;;;;;;5033315;28;20427;-87
2023/06/24 03:05:31;;;;;;;9.53;7.90;;;16.60;99.90;;;;;;5032863;28;20418;-87
2023/06/24 03:07:57;;;;;;;9.43;7.07;;;16.60;99.90;;;;;;5032870;28;20428;-79
2023/06/24 03:10:25;;;;;;;8.23;7.33;;;16.60;99.90;;;;;;5032815;28;20429;-83
2023/06/24 03:12:51;;;;;;;9.50;7.23;;;16.60;99.90;;;;;;5033131;28;20457;-86
2023/06/24 03:15:17;;;;;;;9.60;8.20;;;16.50;99.90;;;;;;5032063;28;20963;-83
2023/06/24 03:17:43;;;;;;;14.30;9.90;;;16.50;99.90;;;;;;5033161;28;20412;-88
2023/06/24 03:20:09;;;;;;;10.30;8.20;;;16.50;99.90;;;;;;5032417;28;20607;-80
2023/06/24 03:22:35;;;;;;;11.50;7.97;;;16.50;99.90;;;;;;5033077;28;20175;-80
2023/06/24 03:25:00;;;;;;;16.00;9.90;;;16.50;99.90;;;;;;5033255;28;20229;-80
2023/06/24 03:27:26;;;;;;;13.67;10.43;;;16.50;99.90;;;;;;5033274;28;20423;-90
2023/06/24 03:29:51;;;;;;;16.73;11.50;;;16.60;99.90;;;;;;5033227;28;20190;-81
2023/06/24 03:32:17;;;;;;;18.97;13.60;;;16.60;99.90;;;;;;5032784;28;20302;-79
2023/06/24 03:34:42;;;;;;;16.93;13.00;;;16.60;99.90;;;;;;5032039;28;20513;-82
2023/06/24 03:37:08;;;;;;;17.00;11.90;;;16.70;99.90;;;;;;5032454;28;20168;-80
2023/06/24 03:39:34;;;;;;;16.50;11.73;;;16.90;99.90;;;;;;5032669;28;20598;-81
2023/06/24 03:41:59;;;;;;;16.10;11.07;;;16.90;99.90;;;;;;5032339;28;20183;-82
2023/06/24 03:44:25;;;;;;;14.30;10.00;;;16.90;99.90;;;;;;5032913;28;20175;-84
2023/06/24 03:46:50;;;;;;;14.50;11.77;;;16.90;99.90;;;;;;5032843;28;20243;-80
2023/06/24 03:49:16;;;;;;;18.17;12.23;;;16.90;99.90;;;;;;5032631;28;20192;-81
2023/06/24 03:51:45;;;;;;;12.90;11.60;;;16.90;99.90;;;;;;5032358;28;20222;-84
2023/06/24 03:54:10;;;;;;;15.33;11.63;;;16.90;99.90;;;;;;5032282;28;20464;-83
2023/06/24 03:56:36;;;;;;;15.13;11.40;;;17.00;99.90;;;;;;5032270;28;20435;-83
2023/06/24 03:59:02;;;;;;;19.17;12.13;;;17.00;99.90;;;;;;5022378;28;20228;-79
2023/06/24 04:01:31;;;;;;;18.67;11.47;;;17.00;99.90;;;;;;5021375;28;20260;-88
2023/06/24 04:03:57;;;;;;;14.93;10.70;;;17.00;99.90;;;;;;5018374;28;20427;-81
2023/06/24 04:06:23;;;;;;;15.33;12.67;;;17.00;99.90;;;;;;5022456;28;20498;-80
2023/06/24 04:08:51;;;;;;;16.20;12.33;;;17.00;99.90;;;;;;5021549;28;20516;-80
2023/06/24 04:11:18;;;;;;;15.30;11.87;;;17.00;99.90;;;;;;5022002;28;20244;-80
2023/06/24 04:13:45;;;;;;;16.43;12.90;;;17.10;99.90;;;;;;5025114;28;20462;-79
2023/06/24 04:16:10;;;;;;;19.80;12.90;;;17.10;99.90;;;;;;5023369;28;20512;-79
2023/06/24 04:18:39;;;;;;;16.13;12.60;;;17.10;99.90;;;;;;5023799;28;20509;-90
2023/06/24 04:21:07;;;;;;;13.50;11.73;;;17.20;99.90;;;;;;5018078;28;20629;-88
2023/06/24 04:23:33;;;;;;;15.50;12.33;;;17.20;99.90;;;;;;5037091;28;20427;-90
2023/06/24 04:25:59;;;;;;;16.40;11.70;;;17.30;99.90;;;;;;5030032;28;20434;-88
2023/06/24 04:28:25;;;;;;;18.40;12.67;;;17.30;99.90;;;;;;5020319;28;20179;-86
2023/06/24 04:30:51;;;;;;;13.83;11.23;;;17.40;99.90;;;;;;5025190;28;20416;-88
2023/06/24 04:33:17;;;;;;;12.50;10.97;;;17.50;99.90;;;;;;5027867;28;20547;-89
2023/06/24 04:35:43;;;;;;;14.07;11.37;;;17.60;99.90;;;;;;5026112;28;20464;-87
2023/06/24 04:38:09;;;;;;;14.97;11.20;;;17.60;99.90;;;;;;5027005;28;20539;-86
2023/06/24 04:40:35;;;;;;;17.93;12.23;;;17.60;99.90;;;;;;5025166;28;20417;-87
2023/06/24 04:43:00;;;;;;;14.00;11.27;;;17.70;99.90;;;;;;5026107;28;20172;-88
2023/06/24 04:45:26;;;;;;;15.97;11.67;;;17.70;99.90;;;;;;5026461;28;20204;-87
2023/06/24 04:47:52;;;;;;;15.70;11.90;;;17.80;99.90;;;;;;5024698;28;20181;-87
2023/06/24 04:50:17;;;;;;;17.93;12.43;;;17.80;99.90;;;;;;5025962;28;20175;-88
2023/06/24 04:52:44;;;;;;;15.53;12.27;;;17.90;99.90;;;;;;5028833;28;20506;-88
2023/06/24 04:55:10;;;;;;;15.30;12.13;;;17.90;99.90;;;;;;5022072;28;20242;-89
2023/06/24 04:57:35;;;;;;;19.60;12.27;;;17.90;99.90;;;;;;5016171;28;20464;-87
2023/06/24 05:00:01;;;;;;;16.47;11.63;;;17.90;99.90;;;;;;5016474;28;20287;-89
2023/06/24 05:02:26;;;;;;;13.33;11.30;;;17.90;99.90;;;;;;5016310;28;20172;-87
2023/06/24 05:04:52;;;;;;;19.50;11.97;;;17.90;99.90;;;;;;5015981;28;20578;-89
2023/06/24 05:07:18;;;;;;;14.00;11.97;;;17.90;99.90;;;;;;5016254;28;20168;-88
2023/06/24 05:09:47;;;;;;;17.50;11.40;;;17.90;99.90;;;;;;5016113;28;20424;-86
2023/06/24 05:12:12;;;;;;;13.97;11.47;;;17.90;99.90;;;;;;5016408;28;20504;-90
2023/06/24 05:14:38;;;;;;;17.47;12.70;;;18.00;99.90;;;;;;5017087;28;20487;-90
2023/06/24 05:17:04;;;;;;;12.93;11.50;;;18.10;99.90;;;;;;5016634;28;20189;-89
2023/06/24 05:19:29;;;;;;;16.77;11.17;;;18.10;99.90;;;;;;5022335;28;20662;-91
2023/06/24 05:21:55;;;;;;;16.23;12.10;;;18.20;99.90;;;;;;5035088;28;20432;-86
2023/06/24 05:24:20;;;;;;;15.80;11.83;;;18.20;99.90;;;;;;5035502;28;20180;-79
2023/06/24 05:26:51;;;;;;;13.40;10.97;;;18.30;99.90;;;;;;5035551;28;20255;-80
2023/06/24 05:29:17;;;;;;;15.03;10.70;;;18.30;99.90;;;;;;5035311;28;20163;-80
2023/06/24 05:31:43;;;;;;;16.33;11.73;;;18.40;99.90;;;;;;5033694;28;20440;-87
2023/06/24 05:34:09;;;;;;;11.47;10.30;;;18.50;99.90;;;;;;5035081;28;20620;-80
2023/06/24 05:36:35;;;;;;;15.23;10.90;;;18.50;99.90;;;;;;5034800;28;20498;-79
2023/06/24 05:39:01;;;;;;;14.33;9.57;;;18.70;99.90;;;;;;5035041;28;20180;-81
2023/06/24 05:41:26;;;;;;;14.43;8.67;;;18.80;99.90;;;;;;5034989;28;20185;-79
2023/06/24 05:44:06;;;;;;;15.80;10.40;;;19.00;99.90;;;;;;5035097;28;20316;-79
2023/06/24 05:46:32;;;;;;;11.50;8.83;;;19.20;99.90;;;;;;5035075;28;20173;-86
2023/06/24 05:48:58;;;;;;;12.87;8.37;;;19.40;99.90;;;;;;5034951;28;20425;-86
2023/06/24 05:51:23;;;;;;;12.10;9.33;;;19.50;99.90;;;;;;5034971;28;20186;-89
2023/06/24 05:53:49;;;;;;;11.40;8.57;;;19.70;99.90;;;;;;5035607;28;20213;-89
2023/06/24 05:56:14;;;;;;;13.20;8.60;;;19.80;99.90;;;;;;5036040;28;20177;-88
2023/06/24 05:58:40;;;;;;;11.33;8.70;;;19.80;99.90;;;;;;5035038;28;20559;-87
2023/06/24 06:01:07;;;;;;;9.07;8.17;;;19.90;99.90;;;;;;5035301;28;20521;-82
2023/06/24 06:03:32;;;;;;;12.30;8.63;;;20.00;99.90;;;;;;5037524;28;20417;-82
2023/06/24 06:05:58;;;;;;;9.60;8.60;;;20.10;99.90;;;;;;5041675;28;20909;-81
2023/06/24 06:08:23;;;;;;;9.23;7.87;;;20.20;99.90;;;;;;5034640;28;20174;-81
2023/06/24 06:10:49;;;;;;;10.70;8.13;;;20.50;99.90;;;;;;5034586;28;20178;-80
2023/06/24 06:13:14;;;;;;;10.00;8.33;;;20.60;99.90;;;;;;5034660;28;20214;-79
2023/06/24 06:15:40;;;;;;;9.00;7.57;;;20.70;99.90;;;;;;5035154;28;20252;-81
2023/06/24 06:18:17;;;;;;;9.20;7.70;;;20.80;72.20;;;;;;5035628;28;20635;-92
2023/06/24 06:20:44;;;;;;;8.23;6.97;;;20.80;58.10;;;;;;5035618;28;20194;-89
2023/06/24 06:23:09;;;;;;;9.20;8.07;;;20.90;39.50;;;;;;5035348;28;20501;-89
2023/06/24 06:25:37;;;;;;;7.83;7.03;;;21.00;18.70;;;;;;5035037;28;20579;-91
2023/06/24 06:28:02;;;;;;;9.30;6.80;;;21.00;1.00;;;;;;5023396;28;20170;-90
2023/06/24 06:30:28;;;;;;;8.13;7.30;;;21.10;1.00;;;;;;5030684;28;20993;-92
2023/06/24 06:32:53;;;;;;;6.60;5.27;;;21.20;1.00;;;;;;5036029;28;20297;-90
2023/06/24 06:35:19;;;;;;;7.83;5.90;;;21.20;1.00;;;;;;5034704;28;20187;-89
2023/06/24 06:37:46;;;;;;;7.47;5.83;;;21.40;1.00;;;;;;5034775;28;20648;-87
2023/06/24 06:40:11;;;;;;;7.60;5.60;;;21.50;1.00;;;;;;5034823;28;20308;-84
2023/06/24 06:42:37;;;;;;;6.23;5.60;;;21.60;1.00;;;;;;5033618;28;20951;-89
2023/06/24 06:45:03;;;;;;;6.73;5.20;;;21.80;1.00;;;;;;5033993;28;20172;-81
2023/06/24 06:47:28;;;;;;;7.63;4.60;;;22.00;1.00;;;;;;5033820;28;20226;-84
2023/06/24 06:49:54;;;;;;;6.63;4.80;;;22.20;1.00;;;;;;5033331;28;20469;-87
2023/06/24 06:52:19;;;;;;;4.73;4.33;;;22.50;99.90;;;;;;5033720;28;20192;-87
2023/06/24 06:54:45;;;;;;;4.40;3.33;;;22.50;1.00;;;;;;5033612;28;20184;-86
2023/06/24 06:57:10;;;;;;;5.30;3.87;;;22.70;1.00;;;;;;5033430;28;20284;-87
2023/06/24 06:59:36;;;;;;;3.57;2.90;;;22.90;1.00;;;;;;5033609;28;20185;-88
2023/06/24 07:02:01;;;;;;;6.87;4.03;;;23.10;1.00;;;;;;5033545;28;20684;-87
2023/06/24 07:04:27;;;;;;;4.63;2.83;;;23.40;1.00;;;;;;5033553;28;20253;-87
2023/06/24 07:06:52;;;;;;;6.03;3.40;;;23.60;1.00;;;;;;5033216;28;20229;-88
2023/06/24 07:09:19;;;;;;;3.37;2.40;;;23.70;1.00;;;;;;5033452;28;20181;-89
2023/06/24 07:11:45;;;;;;;3.53;3.07;;;23.90;1.00;;;;;;5033590;28;20529;-87
2023/06/24 07:14:10;;;;;;;3.60;2.50;;;24.10;1.00;;;;;;5033506;28;20460;-88
2023/06/24 07:16:36;;;;;;;3.80;3.50;;;24.30;1.00;;;;;;5033733;28;20254;-88
2023/06/24 07:19:04;;;;;;;4.63;3.30;;;24.80;1.00;;;;;;5033719;28;20177;-80
2023/06/24 07:21:30;;;;;;;3.40;3.10;;;25.40;99.90;;;;;;5033095;28;20178;-81
2023/06/24 07:23:55;;;;;;;5.63;2.90;;;26.00;99.90;;;;;;5033065;28;20929;-85
2023/06/24 07:26:22;;;;;;;5.40;3.47;;;26.70;99.90;;;;;;5033311;28;20197;-88
2023/06/24 07:28:47;;;;;;;3.00;2.70;;;27.10;99.90;;;;;;5033481;28;20177;-83
2023/06/24 07:31:13;;;;;;;3.93;3.53;;;27.30;94.50;;;;;;5033102;28;20765;-87
2023/06/24 07:33:38;;;;;;;3.80;2.70;;;27.80;90.00;;;;;;5033109;28;20210;-86
2023/06/24 07:36:04;;;;;;;4.37;2.70;;;28.20;64.80;;;;;;5032835;28;20174;-83
2023/06/24 07:38:29;;;;;;;3.27;2.40;;;28.40;26.10;;;;;;5032910;28;20170;-88
2023/06/24 07:40:56;;;;;;;3.97;2.53;;;28.90;25.00;;;;;;5032939;28;20261;-81
2023/06/24 07:43:21;;;;;;;3.53;2.70;;;29.20;13.70;;;;;;5033098;28;20174;-81
2023/06/24 07:45:46;;;;;;;3.53;2.40;;;29.50;2.50;;;;;;5032937;28;20409;-80
2023/06/24 07:48:12;;;;;;;2.93;2.00;;;29.80;1.00;;;;;;5032994;28;20170;-90
2023/06/24 07:50:38;;;;;;;3.53;2.47;;;30.00;1.00;;;;;;5032802;28;20180;-80
2023/06/24 07:53:04;;;;;;;2.60;2.30;;;30.10;1.00;;;;;;5032809;28;20206;-85
2023/06/24 07:55:29;;;;;;;6.67;2.73;;;30.50;1.00;;;;;;5034511;28;20413;-88
2023/06/24 07:57:55;;;;;;;5.20;2.27;;;30.80;1.00;;;;;;5036928;28;20217;-87
2023/06/24 08:00:20;;;;;;;2.53;1.73;;;31.00;1.00;;;;;;5037033;28;20197;-80
2023/06/24 08:02:46;;;;;;;4.30;2.37;;;31.10;1.00;;;;;;5036916;28;20175;-81
2023/06/24 08:05:11;;;;;;;2.93;2.40;;;31.10;1.00;;;;;;5036654;28;20241;-89
2023/06/24 08:07:40;;;;;;;3.23;2.60;;;31.10;1.00;;;;;;5036855;28;20193;-80
2023/06/24 08:10:05;;;;;;;3.33;2.40;;;31.10;1.00;;;;;;5036994;28;20173;-80
2023/06/24 08:12:32;;;;;;;2.10;1.90;;;31.30;1.00;;;;;;5036726;28;20421;-82
2023/06/24 08:14:57;;;;;;;4.53;2.30;;;31.30;1.00;;;;;;5036812;28;20178;-81
2023/06/24 08:17:22;;;;;;;3.43;2.20;;;31.60;1.00;;;;;;5036671;28;20990;-81
2023/06/24 08:19:48;;;;;;;3.40;2.10;;;32.00;1.00;;;;;;5036100;28;20174;-86
2023/06/24 08:22:14;;;;;;;2.23;2.03;;;32.20;1.00;;;;;;5036541;28;20172;-81
2023/06/24 08:24:40;;;;;;;2.77;2.13;;;32.30;1.00;;;;;;5036637;28;20635;-80
2023/06/24 08:27:05;;;;;;;2.73;1.97;;;32.10;1.00;;;;;;5036368;28;20170;-81
2023/06/24 08:29:31;;;;;;;2.43;2.23;;;32.50;1.00;;;;;;5036348;28;20240;-80
2023/06/24 08:31:56;;;;;;;3.63;2.87;;;32.80;1.00;;;;;;5036385;28;20510;-81
2023/06/24 08:34:22;;;;;;;5.37;2.10;;;33.10;1.00;;;;;;5036013;28;20206;-87
2023/06/24 08:36:47;;;;;;;3.07;2.00;;;33.10;1.00;;;;;;5036338;28;20202;-88
2023/06/24 08:39:13;;;;;;;4.07;2.27;;;33.20;1.00;;;;;;5036117;28;20190;-81
2023/06/24 08:41:38;;;;;;;1.70;1.50;;;33.20;1.00;;;;;;5036254;28;20257;-82
2023/06/24 08:44:04;;;;;;;2.33;1.77;;;33.20;1.00;;;;;;5036346;28;20533;-81
2023/06/24 08:46:30;;;;;;;2.40;1.80;;;32.90;1.00;;;;;;5036382;28;20217;-87
2023/06/24 08:49:07;;;;;;;2.30;1.90;;;32.80;1.00;;;;;;5036206;28;20193;-80
2023/06/24 08:51:39;;;;;;;2.67;1.70;;;32.80;1.00;;;;;;5035703;28;20425;-81
2023/06/24 08:54:06;;;;;;;1.87;1.63;;;33.10;1.00;;;;;;5035777;28;20999;-81
2023/06/24 08:56:33;;;;;;;4.40;2.43;;;33.30;1.00;;;;;;5035903;28;20920;-80
2023/06/24 08:58:58;;;;;;;4.70;2.40;;;33.40;1.00;;;;;;5035872;28;20495;-87
2023/06/24 09:01:25;;;;;;;3.37;2.03;;;33.50;1.00;;;;;;5035864;28;20516;-89
2023/06/24 09:03:51;;;;;;;2.90;2.10;;;33.40;1.00;;;;;;5036001;28;20297;-80
2023/06/24 09:06:17;;;;;;;2.70;1.80;;;33.40;1.00;;;;;;5035286;28;20893;-86
2023/06/24 09:08:55;;;;;;;2.77;2.20;;;33.30;1.00;;;;;;5035765;28;20425;-81
2023/06/24 09:11:28;;;;;;;3.97;1.80;;;33.30;1.00;;;;;;5035811;28;20180;-85
2023/06/24 09:13:57;;;;;;;2.83;2.07;;;33.40;1.00;;;;;;5035552;28;20476;-81
2023/06/24 09:16:23;;;;;;;2.40;1.60;;;33.70;1.00;;;;;;5035586;28;20459;-86
2023/06/24 09:18:50;;;;;;;2.80;2.17;;;33.60;1.00;;;;;;5035500;28;20496;-84
2023/06/24 09:21:27;;;;;;;2.30;2.10;;;33.90;1.00;;;;;;5035048;28;20996;-87
2023/06/24 09:23:53;;;;;;;2.60;2.13;;;34.10;1.00;;;;;;5035448;28;20817;-88
2023/06/24 09:26:19;;;;;;;3.10;2.10;;;33.80;1.00;;;;;;5035421;28;20421;-80
2023/06/24 09:28:49;;;;;;;4.97;1.87;;;33.80;1.00;;;;;;5035328;28;20424;-81
2023/06/24 09:31:14;;;;;;;3.00;2.50;;;33.70;1.00;;;;;;5035300;28;20162;-86
2023/06/24 09:33:44;;;;;;;2.77;1.67;;;33.80;1.00;;;;;;5035089;28;20476;-81
2023/06/24 09:36:14;;;;;;;3.30;2.33;;;33.80;1.00;;;;;;5034848;28;20171;-80
2023/06/24 09:38:42;;;;;;;2.30;2.10;;;33.80;1.00;;;;;;5033738;28;20421;-80
2023/06/24 09:41:08;;;;;;;4.10;2.13;;;33.70;1.00;;;;;;5024843;28;20468;-80
2023/06/24 09:43:39;;;;;;;3.57;2.90;;;33.70;1.00;;;;;;5023625;28;20430;-90
2023/06/24 09:46:06;;;;;;;2.90;2.23;;;33.40;1.00;;;;;;5024445;28;20440;-84
2023/06/24 09:48:33;;;;;;;2.43;2.20;;;33.90;1.00;;;;;;5025583;28;20771;-80
2023/06/24 09:51:03;;;;;;;2.83;2.20;;;33.90;1.00;;;;;;5022495;28;20413;-81
2023/06/24 09:53:34;;;;;;;2.93;2.20;;;33.70;1.00;;;;;;5025084;28;20556;-84
2023/06/24 09:56:01;;;;;;;3.33;2.63;;;33.30;1.00;;;;;;5023712;28;20456;-87
2023/06/24 09:58:32;;;;;;;2.30;2.10;;;33.70;1.00;;;;;;5023946;28;20441;-81
2023/06/24 10:01:05;;;;;;;2.40;2.20;;;33.90;1.00;;;;;;5025821;28;20772;-85
2023/06/24 10:03:36;;;;;;;3.67;2.77;;;34.00;1.00;;;;;;5025137;28;20402;-81
2023/06/24 10:06:02;;;;;;;5.13;2.90;;;33.70;1.00;;;;;;5023287;28;20408;-83
2023/06/24 10:08:30;;;;;;;4.60;2.90;;;33.90;1.00;;;;;;5023801;28;20488;-80
2023/06/24 10:10:56;;;;;;;3.23;2.70;;;34.10;1.00;;;;;;5025058;28;20894;-81
2023/06/24 10:13:21;;;;;;;3.23;2.30;;;34.10;1.00;;;;;;5023444;28;20457;-81
2023/06/24 10:15:48;;;;;;;3.03;2.73;;;34.10;1.00;;;;;;5023813;28;20232;-80
2023/06/24 10:18:39;;;;;;;4.23;2.60;;;34.10;1.00;;;;;;5024432;28;20257;-88
2023/06/24 10:21:07;;;;;;;2.83;2.33;;;34.50;1.00;;;;;;5023613;28;20509;-88
2023/06/24 10:23:52;;;;;;;2.90;2.60;;;34.40;1.00;;;;;;5022979;28;20426;-86
2023/06/24 10:26:28;;;;;;;4.63;2.90;;;34.50;1.00;;;;;;5022897;28;20453;-89
2023/06/24 10:29:05;;;;;;;4.70;3.40;;;34.40;1.00;;;;;;5023025;28;20930;-90
2023/06/24 10:31:40;;;;;;;2.50;2.20;;;34.30;1.00;;;;;;5023139;28;20416;-88
2023/06/24 10:34:33;;;;;;;3.63;2.77;;;34.30;1.00;;;;;;5023370;28;20473;-89
2023/06/24 10:36:59;;;;;;;2.37;2.17;;;34.10;1.00;;;;;;5011865;28;20433;-89
2023/06/24 10:39:48;;;;;;;3.97;2.70;;;34.10;1.00;;;;;;5023957;28;20733;-90
2023/06/24 10:42:31;;;;;;;2.97;2.03;;;33.70;1.00;;;;;;5025118;28;20396;-90
2023/06/24 10:45:01;;;;;;;4.60;2.67;;;33.50;1.00;;;;;;5025121;28;20462;-89
2023/06/24 10:47:28;;;;;;;3.73;3.30;;;33.30;1.00;;;;;;5022044;28;20794;-88
2023/06/24 10:49:54;;;;;;;3.83;2.50;;;33.30;1.00;;;;;;5020287;28;20426;-89
2023/06/24 10:52:22;;;;;;;2.77;2.47;;;33.60;1.00;;;;;;5024147;28;20429;-88
2023/06/24 10:54:49;;;;;;;3.13;2.60;;;33.40;1.00;;;;;;5021148;28;20466;-89
2023/06/24 10:57:14;;;;;;;3.63;3.20;;;33.40;1.00;;;;;;5022276;28;20493;-87
2023/06/24 10:59:47;;;;;;;3.10;2.90;;;33.40;1.00;;;;;;5023990;28;20507;-87
2023/06/24 11:02:15;;;;;;;3.23;2.60;;;33.50;1.00;;;;;;5024353;28;20190;-86
2023/06/24 11:04:48;;;;;;;3.50;2.40;;;33.60;1.00;;;;;;5022123;28;20422;-90
2023/06/24 11:07:14;;;;;;;2.57;2.23;;;33.70;1.00;;;;;;5023609;28;20405;-88
2023/06/24 11:09:47;;;;;;;3.10;2.60;;;33.90;1.00;;;;;;5022386;28;20485;-90
2023/06/24 11:12:13;;;;;;;4.00;2.90;;;33.90;1.00;;;;;;5022186;28;20453;-88
2023/06/24 11:14:39;;;;;;;3.80;3.30;;;34.10;1.00;;;;;;5025184;28;20496;-89
2023/06/24 11:17:05;;;;;;;3.90;2.70;;;34.10;1.00;;;;;;5026652;28;20175;-91
2023/06/24 11:19:31;;;;;;;4.07;2.47;;;34.10;1.00;;;;;;5021724;28;20818;-85
2023/06/24 11:22:00;;;;;;;6.03;3.60;;;34.20;1.00;;;;;;5023556;28;20654;-84
2023/06/24 11:24:27;;;;;;;2.30;2.10;;;33.80;1.00;;;;;;5013457;28;20217;-80
2023/06/24 11:26:52;;;;;;;4.40;3.40;;;33.90;1.00;;;;;;5013357;28;20746;-82
2023/06/24 11:29:18;;;;;;;3.50;2.70;;;33.80;1.00;;;;;;5012746;28;20460;-84
2023/06/24 11:31:45;;;;;;;2.90;2.53;;;33.70;1.00;;;;;;5011913;28;20194;-80
2023/06/24 11:34:10;;;;;;;3.20;2.90;;;34.00;1.00;;;;;;5012736;28;20230;-82
2023/06/24 11:36:36;;;;;;;2.73;2.50;;;33.90;1.00;;;;;;5013465;28;20493;-86
2023/06/24 11:39:05;;;;;;;4.57;2.07;;;33.90;1.00;;;;;;5013351;28;20537;-87
2023/06/24 11:41:30;;;;;;;2.13;1.90;;;34.00;1.00;;;;;;5013240;28;20553;-84
2023/06/24 11:43:58;;;;;;;4.93;2.60;;;34.10;1.00;;;;;;5013429;28;20422;-86
2023/06/24 11:46:35;;;;;;;2.93;2.37;;;34.30;1.00;;;;;;5017528;28;20191;-81
2023/06/24 11:49:05;;;;;;;4.90;2.30;;;33.90;1.00;;;;;;5032526;28;20441;-87
2023/06/24 11:51:30;;;;;;;3.00;2.70;;;33.90;1.00;;;;;;5032902;28;20449;-80
2023/06/24 11:54:00;;;;;;;3.20;2.90;;;33.80;1.00;;;;;;5033014;28;20604;-81
2023/06/24 11:56:38;;;;;;;2.93;2.63;;;33.80;1.00;;;;;;5017255;28;20181;-88
2023/06/24 11:59:26;;;;;;;3.37;2.83;;;33.90;1.00;;;;;;5021301;28;20484;-89
2023/06/24 12:01:56;;;;;;;2.70;2.10;;;33.90;1.00;;;;;;5022294;28;20417;-90
2023/06/24 12:04:28;;;;;;;3.70;2.60;;;33.70;1.00;;;;;;5023594;28;20417;-88
2023/06/24 12:06:53;;;;;;;2.87;2.20;;;33.70;1.00;;;;;;5022458;28;20425;-80
2023/06/24 12:09:19;;;;;;;3.53;2.60;;;33.70;1.00;;;;;;5021553;28;20409;-80
2023/06/24 12:11:45;;;;;;;3.53;2.57;;;33.70;1.00;;;;;;5023779;28;20178;-81
2023/06/24 12:14:10;;;;;;;2.63;2.30;;;33.40;1.00;;;;;;5019360;28;20225;-80
2023/06/24 12:16:36;;;;;;;2.53;2.33;;;33.30;1.00;;;;;;5021377;28;20178;-80
2023/06/24 12:19:02;;;;;;;2.70;2.20;;;33.20;1.00;;;;;;5022908;28;20559;-88
2023/06/24 12:21:27;;;;;;;3.50;2.80;;;32.80;1.00;;;;;;5022672;28;20181;-85
2023/06/24 12:23:53;;;;;;;3.93;3.17;;;32.50;1.00;;;;;;5023339;28;20421;-87
2023/06/24 12:26:18;;;;;;;3.37;3.07;;;32.00;1.00;;;;;;5022444;28;20253;-87
2023/06/24 12:28:44;;;;;;;3.50;2.90;;;31.70;1.00;;;;;;5018630;28;20663;-84
2023/06/24 12:31:11;;;;;;;4.40;3.03;;;31.50;1.00;;;;;;5018130;28;20233;-87
2023/06/24 12:33:36;;;;;;;3.60;3.30;;;31.40;1.00;;;;;;5021277;28;20203;-86
2023/06/24 12:36:04;;;;;;;3.77;2.03;;;31.60;1.00;;;;;;5020418;28;20497;-88
2023/06/24 12:38:30;;;;;;;3.00;2.70;;;31.90;1.00;;;;;;5021439;28;20543;-89
2023/06/24 12:40:57;;;;;;;3.53;2.57;;;32.30;1.00;;;;;;5029539;28;20432;-85
2023/06/24 12:43:23;;;;;;;3.80;2.80;;;32.50;1.00;;;;;;5036012;28;20186;-83
2023/06/24 12:45:48;;;;;;;3.33;2.83;;;32.60;1.00;;;;;;5036335;28;20417;-85